Аэропорт: Ульяновск-Восточный. Ульяновск

ICAO: UWLW

METAR:
2024-07-24 16:00:00
UWLW 241600Z 01005MPS 9999 BKN040CB 22/14 Q1004 R02/CLRD60 NOSIG RMK QFE746/0995
TAF:
2024-07-24 13:48:00
TAF UWLW 241348Z 2415/2515 35003G09MPS 9999 SCT030 TX25/2415Z TN14/2501Z 
  TEMPO 2415/2418 02005G11MPS -SHRA BKN020CB 
  TEMPO 2506/2515 02008G13MPS 6000 -SHRA BKN016CB